createdAt,value
2023-09-18T00:00:15.683Z,13.88
2023-09-18T00:02:59.996Z,14.17
2023-09-18T00:05:44.870Z,14.24
2023-09-18T00:08:29.316Z,14.29
2023-09-18T00:11:02.305Z,14.10
2023-09-18T00:13:46.715Z,14.33
2023-09-18T00:16:19.611Z,14.11
2023-09-18T00:19:02.695Z,14.29
2023-09-18T00:21:35.968Z,14.09
2023-09-18T00:24:19.049Z,14.27
2023-09-18T00:26:53.583Z,14.00
2023-09-18T00:29:36.524Z,14.17
2023-09-18T00:32:09.413Z,13.89
2023-09-18T00:34:53.644Z,14.06
2023-09-18T00:37:26.783Z,13.82
2023-09-18T00:39:59.566Z,13.85
2023-09-18T00:42:42.307Z,14.12
2023-09-18T00:45:15.109Z,14.00
2023-09-18T00:48:02.134Z,14.30
2023-09-18T00:50:34.866Z,14.19
2023-09-18T00:53:22.040Z,14.43
2023-09-18T00:55:57.769Z,14.21
2023-09-18T00:58:42.455Z,14.53
2023-09-18T01:01:25.706Z,14.57
2023-09-18T01:04:00.551Z,14.39
2023-09-18T01:06:46.401Z,14.61
2023-09-18T01:09:30.561Z,14.63
2023-09-18T01:12:15.229Z,14.43
2023-09-18T01:15:06.453Z,14.68
2023-09-18T01:17:40.057Z,14.47
2023-09-18T01:20:25.895Z,14.68
2023-09-18T01:22:58.716Z,14.49
2023-09-18T01:25:41.472Z,14.66
2023-09-18T01:28:14.092Z,14.23
2023-09-18T01:30:58.232Z,14.57
2023-09-18T01:33:45.688Z,14.49
2023-09-18T01:36:28.777Z,14.44
2023-09-18T01:39:01.581Z,14.16
2023-09-18T01:41:44.932Z,14.32
2023-09-18T01:44:17.914Z,14.04
2023-09-18T01:47:06.183Z,14.24
2023-09-18T01:49:52.018Z,14.21
2023-09-18T01:52:25.005Z,14.07
2023-09-18T01:55:10.157Z,14.28
2023-09-18T01:57:52.713Z,14.30
2023-09-18T02:00:35.434Z,14.36
2023-09-18T02:03:12.224Z,14.16
2023-09-18T02:05:54.799Z,14.39
2023-09-18T02:08:28.443Z,14.19
2023-09-18T02:11:10.784Z,14.47
2023-09-18T02:13:43.508Z,14.22
2023-09-18T02:16:29.196Z,14.45
2023-09-18T02:19:12.854Z,14.47
2023-09-18T02:21:59.197Z,14.47
2023-09-18T02:24:41.680Z,14.52
2023-09-18T02:27:27.241Z,14.60
2023-09-18T02:29:59.843Z,14.33
2023-09-18T02:32:42.662Z,14.48
2023-09-18T02:35:25.164Z,14.43
2023-09-18T02:37:58.887Z,14.10
2023-09-18T02:40:44.025Z,14.26
2023-09-18T02:43:16.885Z,13.98
2023-09-18T02:45:59.348Z,14.20
2023-09-18T02:48:43.561Z,14.22
2023-09-18T02:51:16.940Z,14.10
2023-09-18T02:54:01.096Z,14.33
2023-09-18T02:56:34.162Z,14.16
2023-09-18T02:59:16.759Z,14.37
2023-09-18T03:02:05.630Z,14.39
2023-09-18T03:04:50.547Z,14.46
2023-09-18T03:07:34.584Z,14.54
2023-09-18T03:10:20.566Z,14.61
2023-09-18T03:12:53.193Z,14.46
2023-09-18T03:15:38.557Z,14.70
2023-09-18T03:18:23.242Z,14.75
2023-09-18T03:21:05.781Z,14.78
2023-09-18T03:23:38.599Z,14.59
2023-09-18T03:26:11.589Z,14.60
2023-09-18T03:28:55.748Z,14.64
2023-09-18T03:31:30.652Z,14.64
2023-09-18T03:34:14.930Z,14.91
2023-09-18T03:36:58.827Z,14.73
2023-09-18T03:39:32.786Z,14.64
2023-09-18T03:42:18.850Z,14.92
2023-09-18T03:44:51.940Z,14.55
2023-09-18T03:47:36.911Z,14.78
2023-09-18T03:50:11.019Z,14.78
2023-09-18T03:52:54.510Z,15.13
2023-09-18T03:55:29.206Z,14.92
2023-09-18T03:58:14.616Z,15.21
2023-09-18T04:01:00.889Z,15.24
2023-09-18T04:03:33.768Z,14.77
2023-09-18T04:06:06.398Z,14.96
2023-09-18T04:08:50.971Z,15.30
2023-09-18T04:11:35.368Z,15.17
2023-09-18T04:14:20.680Z,15.38
2023-09-18T04:16:54.222Z,15.16
2023-09-18T04:19:39.448Z,15.43
2023-09-18T04:22:23.116Z,15.43
2023-09-18T04:25:08.244Z,15.47
2023-09-18T04:27:54.310Z,15.27
2023-09-18T04:30:29.069Z,15.31
2023-09-18T04:33:16.362Z,15.57
2023-09-18T04:36:00.408Z,15.28
2023-09-18T04:38:33.504Z,15.28
2023-09-18T04:41:18.870Z,15.69
2023-09-18T04:43:52.519Z,15.50
2023-09-18T04:46:37.193Z,15.82
2023-09-18T04:49:13.365Z,15.65
2023-09-18T04:51:58.630Z,15.90
2023-09-18T04:54:35.132Z,15.46
2023-09-18T04:57:20.141Z,15.82
2023-09-18T05:00:01.966Z,15.49
2023-09-18T05:02:41.429Z,15.70
2023-09-18T05:05:16.587Z,15.63
2023-09-18T05:08:00.937Z,16.15
2023-09-18T05:10:35.962Z,16.11
2023-09-18T05:13:20.874Z,16.45
2023-09-18T05:15:54.370Z,16.13
2023-09-18T05:18:40.689Z,16.41
2023-09-18T05:21:15.357Z,16.10
2023-09-18T05:23:50.582Z,16.17
2023-09-18T05:26:35.437Z,16.64
2023-09-18T05:29:19.709Z,16.87
2023-09-18T05:31:53.736Z,16.42
2023-09-18T05:34:40.439Z,16.91
2023-09-18T05:37:16.040Z,16.37
2023-09-18T05:40:01.998Z,17.11
2023-09-18T05:42:47.666Z,17.27
2023-09-18T05:45:33.710Z,17.54
2023-09-18T05:48:16.704Z,17.62
2023-09-18T05:51:03.433Z,17.79
2023-09-18T05:53:37.734Z,17.82
2023-09-18T05:56:23.097Z,18.40
2023-09-18T05:59:08.174Z,18.60
2023-09-18T06:01:44.574Z,18.32
2023-09-18T06:04:28.655Z,19.04
2023-09-18T06:07:02.293Z,18.86
2023-09-18T06:09:48.783Z,19.52
2023-09-18T06:12:33.962Z,19.82
2023-09-18T06:15:16.977Z,19.80
2023-09-18T06:17:50.405Z,19.34
2023-09-18T06:20:35.378Z,19.59
2023-09-18T06:23:19.103Z,19.47
2023-09-18T06:25:54.976Z,18.98
2023-09-18T06:28:41.013Z,19.23
2023-09-18T06:31:15.671Z,18.88
2023-09-18T06:34:00.939Z,19.17
2023-09-18T06:36:35.749Z,18.81
2023-09-18T06:39:21.650Z,19.03
2023-09-18T06:41:55.200Z,18.56
2023-09-18T06:44:42.720Z,18.75
2023-09-18T06:47:17.492Z,18.27
2023-09-18T06:50:01.422Z,18.48
2023-09-18T06:52:46.061Z,18.38
2023-09-18T06:55:32.953Z,18.29
2023-09-18T06:58:18.483Z,18.12
2023-09-18T07:01:03.674Z,18.08
2023-09-18T07:03:52.397Z,18.08
2023-09-18T07:06:37.153Z,18.11
2023-09-18T07:09:21.461Z,18.15
2023-09-18T07:11:56.018Z,17.68
2023-09-18T07:14:29.634Z,17.60
2023-09-18T07:17:15.950Z,17.85
2023-09-18T07:20:02.751Z,17.85
2023-09-18T07:22:37.756Z,17.58
2023-09-18T07:25:25.050Z,17.86
2023-09-18T07:27:58.460Z,17.49
2023-09-18T07:30:43.200Z,17.82
2023-09-18T07:33:26.446Z,17.80
2023-09-18T07:35:59.943Z,17.57
2023-09-18T07:38:44.919Z,17.94
2023-09-18T07:41:30.164Z,18.08
2023-09-18T07:44:03.742Z,17.48
2023-09-18T07:46:49.356Z,18.08
2023-09-18T07:49:23.636Z,18.02
2023-09-18T07:52:12.055Z,18.54
2023-09-18T07:54:46.789Z,18.44
2023-09-18T07:57:32.576Z,18.92
2023-09-18T08:00:10.164Z,18.72
2023-09-18T08:03:00.475Z,19.10
2023-09-18T08:05:35.802Z,18.74
2023-09-18T08:08:21.892Z,19.05
2023-09-18T08:10:56.404Z,18.14
2023-09-18T08:13:40.391Z,18.88
2023-09-18T08:16:15.426Z,18.79
2023-09-18T08:19:00.738Z,19.32
2023-09-18T08:21:35.284Z,18.99
2023-09-18T08:24:22.037Z,19.41
2023-09-18T08:26:57.006Z,18.86
2023-09-18T08:29:48.501Z,19.55
2023-09-18T08:32:22.786Z,19.31
2023-09-18T08:35:10.437Z,19.66
2023-09-18T08:37:44.164Z,19.31
2023-09-18T08:40:28.989Z,19.69
2023-09-18T08:43:05.777Z,19.52
2023-09-18T08:45:57.107Z,20.02
2023-09-18T08:48:34.705Z,19.77
2023-09-18T08:51:21.567Z,20.21
2023-09-18T08:54:08.341Z,20.18
2023-09-18T08:56:42.766Z,19.35
2023-09-18T08:59:16.417Z,19.88
2023-09-18T09:02:04.031Z,20.50
2023-09-18T09:04:50.442Z,20.65
2023-09-18T09:07:25.253Z,20.15
2023-09-18T09:10:12.768Z,20.34
2023-09-18T09:12:56.219Z,19.13
2023-09-18T09:15:51.815Z,19.77
2023-09-18T09:18:27.506Z,19.39
2023-09-18T09:21:13.570Z,19.75
2023-09-18T09:23:57.843Z,19.28
2023-09-18T09:26:45.499Z,19.45
2023-09-18T09:29:27.472Z,18.07
2023-09-18T09:32:19.690Z,18.62
2023-09-18T09:34:54.424Z,18.15
2023-09-18T09:37:41.069Z,18.34
2023-09-18T09:40:15.834Z,17.57
2023-09-18T09:43:04.260Z,17.76
2023-09-18T09:45:38.042Z,17.01
2023-09-18T09:48:23.722Z,17.17
2023-09-18T09:51:01.436Z,16.90
2023-09-18T09:53:49.726Z,17.49
2023-09-18T09:56:49.824Z,17.71
2023-09-18T09:59:25.704Z,17.45
2023-09-18T10:02:04.144Z,17.63
2023-09-18T10:04:49.995Z,18.14
2023-09-18T10:07:24.483Z,18.11
2023-09-18T10:09:58.664Z,18.29
2023-09-18T10:12:46.902Z,18.77
2023-09-18T10:15:35.332Z,18.77
2023-09-18T10:18:46.575Z,19.29
2023-09-18T10:21:57.739Z,19.64
2023-09-18T10:24:34.780Z,19.33
2023-09-18T10:27:23.737Z,19.70
2023-09-18T10:30:01.328Z,19.51
2023-09-18T10:32:38.738Z,19.98
2023-09-18T10:35:27.364Z,20.74
2023-09-18T10:38:15.799Z,20.83
2023-09-18T10:41:06.340Z,20.90
2023-09-18T10:43:51.335Z,20.96
2023-09-18T10:46:36.906Z,20.90
2023-09-18T10:49:25.421Z,20.19
2023-09-18T10:52:19.489Z,20.34
2023-09-18T10:55:11.529Z,20.39
2023-09-18T10:57:55.473Z,20.03
2023-09-18T11:00:45.150Z,20.46
2023-09-18T11:03:20.332Z,20.29
2023-09-18T11:06:08.600Z,20.79
2023-09-18T11:08:55.089Z,20.60
2023-09-18T11:11:39.871Z,20.98
2023-09-18T11:14:24.698Z,20.86
2023-09-18T11:16:59.797Z,20.38
2023-09-18T11:19:51.354Z,20.75
2023-09-18T11:22:25.834Z,20.31
2023-09-18T11:25:37.008Z,20.24
2023-09-18T11:28:34.853Z,20.67
2023-09-18T11:31:07.333Z,20.27
2023-09-18T11:33:56.555Z,20.63
2023-09-18T11:36:34.779Z,20.10
2023-09-18T11:39:40.286Z,20.33
2023-09-18T11:42:26.980Z,20.22
2023-09-18T11:45:01.126Z,19.58
2023-09-18T11:47:48.838Z,19.76
2023-09-18T11:50:24.042Z,18.77
2023-09-18T11:53:10.700Z,19.30
2023-09-18T11:55:46.221Z,18.54
2023-09-18T11:58:31.414Z,19.16
2023-09-18T12:01:24.039Z,19.14
2023-09-18T12:03:59.519Z,18.75
2023-09-18T12:06:45.061Z,19.12
2023-09-18T12:09:35.792Z,19.30
2023-09-18T12:12:11.356Z,19.02
2023-09-18T12:14:58.459Z,19.43
2023-09-18T12:17:36.720Z,19.28
2023-09-18T12:20:22.651Z,19.72
2023-09-18T12:22:56.016Z,19.50
2023-09-18T12:25:47.229Z,19.82
2023-09-18T12:28:34.352Z,19.81
2023-09-18T12:31:10.981Z,19.43
2023-09-18T12:33:50.068Z,19.73
2023-09-18T12:36:40.153Z,19.74
2023-09-18T12:39:39.656Z,19.70
2023-09-18T12:42:14.154Z,19.32
2023-09-18T12:45:04.914Z,19.57
2023-09-18T12:47:43.085Z,19.17
2023-09-18T12:50:31.173Z,19.43
2023-09-18T12:53:18.282Z,18.96
2023-09-18T12:56:19.065Z,19.13
2023-09-18T12:59:10.360Z,18.63
2023-09-18T13:01:51.195Z,18.82
2023-09-18T13:04:42.181Z,18.75
2023-09-18T13:07:32.778Z,18.31
2023-09-18T13:10:21.184Z,18.61
2023-09-18T13:12:59.472Z,18.30
2023-09-18T13:15:36.885Z,18.30
2023-09-18T13:18:32.876Z,18.58
2023-09-18T13:21:22.481Z,18.25
2023-09-18T13:24:12.873Z,18.57
2023-09-18T13:26:55.917Z,18.21
2023-09-18T13:29:43.639Z,18.41
2023-09-18T13:32:58.455Z,18.36
2023-09-18T13:35:33.460Z,17.77
2023-09-18T13:38:28.296Z,18.37
2023-09-18T13:41:16.722Z,18.57
2023-09-18T13:43:53.344Z,18.41
2023-09-18T13:46:54.871Z,18.79
2023-09-18T13:49:36.830Z,18.51
2023-09-18T13:52:23.037Z,18.95
2023-09-18T13:55:14.479Z,18.80
2023-09-18T13:58:06.110Z,19.20
2023-09-18T14:03:57.038Z,21.22
2023-09-18T14:06:35.404Z,22.23
2023-09-18T14:09:24.002Z,23.66
2023-09-18T14:12:02.498Z,23.31
2023-09-18T14:15:07.769Z,23.25
2023-09-18T14:17:42.226Z,22.11
2023-09-18T14:20:32.980Z,21.95
2023-09-18T14:23:21.971Z,21.30
2023-09-18T14:25:58.149Z,20.31
2023-09-18T14:28:52.202Z,20.22
2023-09-18T14:31:41.600Z,19.40
2023-09-18T14:34:32.170Z,19.42
2023-09-18T14:37:15.327Z,18.69
2023-09-18T14:40:07.331Z,18.73
2023-09-18T14:42:54.372Z,18.16
2023-09-18T14:45:41.880Z,18.24
2023-09-18T14:48:37.094Z,18.07
2023-09-18T14:51:13.342Z,17.61
2023-09-18T14:53:59.997Z,17.72
2023-09-18T14:56:33.824Z,17.02
2023-09-18T14:59:35.587Z,17.38
2023-09-18T15:02:16.417Z,17.20
2023-09-18T15:05:05.891Z,17.21
2023-09-18T15:07:49.670Z,16.87
2023-09-18T15:10:38.079Z,17.06
2023-09-18T15:13:26.079Z,16.97
2023-09-18T15:16:01.330Z,16.62
2023-09-18T15:18:47.775Z,16.73
2023-09-18T15:21:23.139Z,16.37
2023-09-18T15:24:08.926Z,16.50
2023-09-18T15:26:57.132Z,16.26
2023-09-18T15:29:35.662Z,16.00
2023-09-18T15:32:21.553Z,16.18
2023-09-18T15:34:56.008Z,15.86
2023-09-18T15:37:42.376Z,16.01
2023-09-18T15:40:22.520Z,15.56
2023-09-18T15:43:08.976Z,15.85
2023-09-18T15:45:46.038Z,15.56
2023-09-18T15:48:32.668Z,15.72
2023-09-18T15:51:18.360Z,15.60
2023-09-18T15:53:55.178Z,15.18
2023-09-18T15:57:01.041Z,15.51
2023-09-18T15:59:37.138Z,15.22
2023-09-18T16:02:17.330Z,15.16
2023-09-18T16:05:12.028Z,15.25
2023-09-18T16:07:52.254Z,14.95
2023-09-18T16:10:38.916Z,15.10
2023-09-18T16:13:12.486Z,14.81
2023-09-18T16:15:58.222Z,14.94
2023-09-18T16:18:32.239Z,14.71
2023-09-18T16:21:06.383Z,14.68
2023-09-18T16:23:54.427Z,14.62
2023-09-18T16:26:27.945Z,14.62
2023-09-18T16:29:01.502Z,14.61
2023-09-18T16:31:46.631Z,14.74
2023-09-18T16:34:38.477Z,14.72
2023-09-18T16:37:22.155Z,14.68
2023-09-18T16:39:56.643Z,14.36
2023-09-18T16:42:48.065Z,14.59
2023-09-18T16:45:36.213Z,14.50
2023-09-18T16:48:23.148Z,14.45
2023-09-18T16:50:58.681Z,14.21
2023-09-18T16:53:45.101Z,14.05
2023-09-18T16:56:31.216Z,14.10
2023-09-18T16:59:08.094Z,14.10
2023-09-18T17:01:54.740Z,14.24
2023-09-18T17:07:23.828Z,13.86
2023-09-18T17:10:13.552Z,14.15
2023-09-18T17:13:04.228Z,14.10
2023-09-18T17:15:39.160Z,13.88
2023-09-18T17:18:32.532Z,14.03
2023-09-18T17:21:21.416Z,13.79
2023-09-18T17:24:09.963Z,13.96
2023-09-18T17:26:48.580Z,13.76
2023-09-18T17:29:36.838Z,13.94
2023-09-18T17:32:11.516Z,13.72
2023-09-18T17:34:59.912Z,13.91
2023-09-18T17:37:51.200Z,13.92
2023-09-18T17:40:39.622Z,13.96
2023-09-18T17:43:28.179Z,13.90
2023-09-18T17:46:12.474Z,13.59
2023-09-18T17:48:58.573Z,13.73
2023-09-18T17:51:33.159Z,13.41
2023-09-18T17:54:18.220Z,13.56
2023-09-18T17:57:01.666Z,13.53
2023-09-18T17:59:48.402Z,13.62
2023-09-18T18:02:33.815Z,13.62
2023-09-18T18:05:08.796Z,13.41
2023-09-18T18:07:58.534Z,13.58
2023-09-18T18:10:48.242Z,13.56
2023-09-18T18:13:21.223Z,13.40
2023-09-18T18:16:07.867Z,13.61
2023-09-18T18:18:41.431Z,13.36
2023-09-18T18:21:15.110Z,13.35
2023-09-18T18:24:01.372Z,13.51
2023-09-18T18:26:44.880Z,13.49
2023-09-18T18:29:17.529Z,13.29
2023-09-18T18:32:04.119Z,13.48
2023-09-18T18:34:38.194Z,13.22
2023-09-18T18:37:24.317Z,13.36
2023-09-18T18:40:13.552Z,13.35
2023-09-18T18:43:03.591Z,13.32
2023-09-18T18:45:54.342Z,13.27
2023-09-18T18:48:39.452Z,13.22
2023-09-18T18:51:18.846Z,13.01
2023-09-18T18:54:04.740Z,13.17
2023-09-18T18:56:41.495Z,12.95
2023-09-18T18:59:27.013Z,13.13
2023-09-18T19:02:11.834Z,13.12
2023-09-18T19:04:56.528Z,13.09
2023-09-18T19:07:29.347Z,12.91
2023-09-18T19:10:02.090Z,12.91
2023-09-18T19:12:48.452Z,13.07
2023-09-18T19:15:23.061Z,12.90
2023-09-18T19:18:07.514Z,13.08
2023-09-18T19:20:40.711Z,12.89
2023-09-18T19:23:20.543Z,12.98
2023-09-18T19:26:02.389Z,13.20
2023-09-18T19:28:47.171Z,13.23
2023-09-18T19:31:25.032Z,13.01
2023-09-18T19:34:18.688Z,13.26
2023-09-18T19:37:09.044Z,13.29
2023-09-18T19:39:41.885Z,13.08
2023-09-18T19:42:26.566Z,13.25
2023-09-18T19:45:01.434Z,13.04
2023-09-18T19:47:49.646Z,13.19
2023-09-18T19:50:36.412Z,13.00
2023-09-18T19:53:23.540Z,13.21
2023-09-18T19:56:34.145Z,13.16
2023-09-18T19:59:23.323Z,13.19
2023-09-18T20:05:27.124Z,13.19
2023-09-18T20:07:59.943Z,12.92
2023-09-18T20:10:44.829Z,13.11
2023-09-18T20:13:17.805Z,12.85
2023-09-18T20:16:03.464Z,13.02
2023-09-18T20:18:47.886Z,12.99
2023-09-18T20:21:22.620Z,12.90
2023-09-18T20:24:08.245Z,13.11
2023-09-18T20:26:42.527Z,12.91
2023-09-18T20:29:26.915Z,13.13
2023-09-18T20:32:12.994Z,13.11
2023-09-18T20:34:47.462Z,12.85
2023-09-18T20:37:32.192Z,13.04
2023-09-18T20:40:05.332Z,12.78
2023-09-18T20:42:47.939Z,13.06
2023-09-18T20:45:34.616Z,13.06
2023-09-18T20:48:18.763Z,13.04
2023-09-18T20:50:53.103Z,12.80
2023-09-18T20:53:38.361Z,12.96
2023-09-18T20:56:11.500Z,12.70
2023-09-18T20:58:58.356Z,12.86
2023-09-18T21:01:31.943Z,12.57
2023-09-18T21:04:17.035Z,12.83
2023-09-18T21:07:01.704Z,12.80
2023-09-18T21:09:45.967Z,12.76
2023-09-18T21:12:20.641Z,12.50
2023-09-18T21:15:04.082Z,12.69
2023-09-18T21:17:49.804Z,12.65
2023-09-18T21:20:24.060Z,12.38
2023-09-18T21:23:08.384Z,12.35
2023-09-18T21:25:54.271Z,12.53
2023-09-18T21:28:27.860Z,12.33
2023-09-18T21:31:14.671Z,12.50
2023-09-18T21:34:00.221Z,12.52
2023-09-18T21:36:32.957Z,12.31
2023-09-18T21:39:16.234Z,12.53
2023-09-18T21:41:49.453Z,12.29
2023-09-18T21:44:34.292Z,12.47
2023-09-18T21:47:18.933Z,12.43
2023-09-18T21:50:04.950Z,12.40
2023-09-18T21:52:54.929Z,12.36
2023-09-18T21:55:27.790Z,12.22
2023-09-18T21:58:12.454Z,12.43
2023-09-18T22:00:45.692Z,12.22
2023-09-18T22:03:31.626Z,12.40
2023-09-18T22:06:06.206Z,12.13
2023-09-18T22:08:49.718Z,12.41
2023-09-18T22:11:34.966Z,12.42
2023-09-18T22:14:20.754Z,12.40
2023-09-18T22:16:53.581Z,12.10
2023-09-18T22:19:38.687Z,12.38
2023-09-18T22:22:23.434Z,12.36
2023-09-18T22:24:56.008Z,12.13
2023-09-18T22:27:40.336Z,12.33
2023-09-18T22:30:23.259Z,12.32
2023-09-18T22:33:08.153Z,12.30
2023-09-18T22:35:41.095Z,12.08
2023-09-18T22:38:33.026Z,12.04
2023-09-18T22:41:17.204Z,12.36
2023-09-18T22:44:27.626Z,12.17
2023-09-18T22:47:47.279Z,12.39
2023-09-18T22:51:05.767Z,12.42
2023-09-18T22:53:47.108Z,12.44
2023-09-18T22:56:31.536Z,12.46
2023-09-18T22:59:16.974Z,12.51
2023-09-18T23:01:49.837Z,12.38
2023-09-18T23:04:32.314Z,12.65
2023-09-18T23:07:07.387Z,12.48
2023-09-18T23:09:52.450Z,12.74
2023-09-18T23:12:27.934Z,12.53
2023-09-18T23:15:17.674Z,12.81
2023-09-18T23:18:01.938Z,12.83
2023-09-18T23:20:36.968Z,12.66
2023-09-18T23:23:23.056Z,12.91
2023-09-18T23:26:09.757Z,12.95
2023-09-18T23:28:52.309Z,12.96
2023-09-18T23:31:25.295Z,12.76
2023-09-18T23:34:09.760Z,13.03
2023-09-18T23:36:43.337Z,12.87
2023-09-18T23:39:29.232Z,13.12
2023-09-18T23:42:03.709Z,12.92
2023-09-18T23:44:49.241Z,13.17
2023-09-18T23:47:21.902Z,12.95
2023-09-18T23:50:08.493Z,13.22
2023-09-18T23:52:42.979Z,13.00
2023-09-18T23:55:27.868Z,13.24
2023-09-18T23:58:12.851Z,13.24
